createdAt,value
2018-07-19T00:00:49.108Z,20.13
2018-07-19T00:03:15.476Z,20.13
2018-07-19T00:05:41.791Z,20.22
2018-07-19T00:08:08.103Z,20.00
2018-07-19T00:10:34.415Z,19.82
2018-07-19T00:13:00.764Z,19.85
2018-07-19T00:15:27.080Z,19.86
2018-07-19T00:17:53.410Z,19.86
2018-07-19T00:20:19.771Z,19.88
2018-07-19T00:22:46.088Z,19.82
2018-07-19T00:25:12.437Z,19.92
2018-07-19T00:27:38.750Z,19.92
2018-07-19T00:30:05.099Z,19.93
2018-07-19T00:32:31.413Z,20.07
2018-07-19T00:34:57.720Z,20.05
2018-07-19T00:37:24.037Z,19.83
2018-07-19T00:39:50.353Z,19.75
2018-07-19T00:42:16.666Z,19.74
2018-07-19T00:44:43.026Z,19.83
2018-07-19T00:47:09.336Z,19.69
2018-07-19T00:49:35.655Z,19.55
2018-07-19T00:52:01.977Z,19.54
2018-07-19T00:54:28.294Z,19.36
2018-07-19T00:56:54.618Z,19.24
2018-07-19T00:59:20.920Z,19.07
2018-07-19T01:01:47.234Z,18.99
2018-07-19T01:04:13.613Z,19.01
2018-07-19T01:06:39.924Z,19.16
2018-07-19T01:09:06.235Z,19.05
2018-07-19T01:11:32.544Z,19.06
2018-07-19T01:13:58.856Z,18.86
2018-07-19T01:16:25.174Z,18.95
2018-07-19T01:18:51.483Z,19.02
2018-07-19T01:21:17.798Z,18.84
2018-07-19T01:23:44.111Z,19.08
2018-07-19T01:26:10.424Z,19.56
2018-07-19T01:28:36.735Z,19.91
2018-07-19T01:31:03.047Z,20.11
2018-07-19T01:33:29.360Z,20.30
2018-07-19T01:35:55.676Z,20.39
2018-07-19T01:38:21.984Z,20.48
2018-07-19T01:40:48.306Z,20.50
2018-07-19T01:43:14.623Z,20.51
2018-07-19T01:45:40.934Z,20.52
2018-07-19T01:48:07.247Z,20.53
2018-07-19T01:50:33.567Z,20.57
2018-07-19T01:52:59.885Z,20.56
2018-07-19T01:55:26.243Z,20.54
2018-07-19T01:57:52.560Z,20.53
2018-07-19T02:00:18.863Z,20.54
2018-07-19T02:02:45.175Z,20.57
2018-07-19T02:05:11.488Z,20.62
2018-07-19T02:07:37.799Z,20.60
2018-07-19T02:10:04.103Z,20.63
2018-07-19T02:12:30.453Z,20.63
2018-07-19T02:14:56.768Z,20.62
2018-07-19T02:17:23.087Z,20.57
2018-07-19T02:19:49.395Z,20.54
2018-07-19T02:22:15.703Z,20.54
2018-07-19T02:24:42.057Z,20.55
2018-07-19T02:27:08.367Z,20.55
2018-07-19T02:29:34.678Z,20.52
2018-07-19T02:32:00.987Z,20.48
2018-07-19T02:34:27.299Z,20.47
2018-07-19T02:36:53.607Z,20.48
2018-07-19T02:39:19.961Z,20.47
2018-07-19T02:41:46.272Z,20.40
2018-07-19T02:44:12.584Z,20.31
2018-07-19T02:46:38.939Z,20.09
2018-07-19T02:49:05.249Z,19.79
2018-07-19T02:51:31.594Z,19.65
2018-07-19T02:53:57.943Z,19.62
2018-07-19T02:56:24.256Z,19.60
2018-07-19T02:58:50.577Z,19.61
2018-07-19T03:01:16.892Z,19.56
2018-07-19T03:03:43.212Z,19.53
2018-07-19T03:06:09.560Z,19.46
2018-07-19T03:08:35.882Z,19.46
2018-07-19T03:11:02.228Z,19.37
2018-07-19T03:13:28.544Z,19.34
2018-07-19T03:15:54.851Z,19.27
2018-07-19T03:18:21.167Z,19.24
2018-07-19T03:20:47.485Z,19.17
2018-07-19T03:23:13.799Z,19.07
2018-07-19T03:25:40.112Z,19.06
2018-07-19T03:28:06.428Z,19.03
2018-07-19T03:30:32.740Z,18.98
2018-07-19T03:32:59.048Z,18.92
2018-07-19T03:35:25.362Z,18.91
2018-07-19T03:37:51.672Z,18.82
2018-07-19T03:40:18.034Z,18.74
2018-07-19T03:42:44.340Z,18.64
2018-07-19T03:45:10.700Z,18.64
2018-07-19T03:47:37.083Z,18.62
2018-07-19T03:50:03.396Z,18.60
2018-07-19T03:52:29.704Z,18.63
2018-07-19T03:54:56.017Z,18.72
2018-07-19T03:57:22.328Z,18.75
2018-07-19T03:59:48.655Z,18.75
2018-07-19T04:02:14.967Z,18.75
2018-07-19T04:04:41.276Z,18.72
2018-07-19T04:07:07.594Z,18.71
2018-07-19T04:09:33.906Z,18.71
2018-07-19T04:12:00.216Z,18.65
2018-07-19T04:14:26.537Z,18.58
2018-07-19T04:16:52.848Z,18.55
2018-07-19T04:19:19.166Z,18.57
2018-07-19T04:21:45.478Z,18.57
2018-07-19T04:24:11.788Z,18.60
2018-07-19T04:26:38.099Z,18.60
2018-07-19T04:29:04.415Z,18.60
2018-07-19T04:31:30.724Z,18.63
2018-07-19T04:33:57.036Z,18.63
2018-07-19T04:36:23.384Z,18.66
2018-07-19T04:38:49.698Z,18.65
2018-07-19T04:41:16.008Z,18.66
2018-07-19T04:43:42.322Z,18.69
2018-07-19T04:46:08.637Z,18.68
2018-07-19T04:48:34.948Z,18.64
2018-07-19T04:51:01.263Z,18.66
2018-07-19T04:53:27.574Z,18.61
2018-07-19T04:55:53.887Z,18.63
2018-07-19T04:58:20.198Z,18.58
2018-07-19T05:00:46.550Z,18.55
2018-07-19T05:03:12.909Z,18.59
2018-07-19T05:05:39.266Z,18.58
2018-07-19T05:08:05.587Z,18.61
2018-07-19T05:10:31.928Z,18.59
2018-07-19T05:12:58.289Z,18.61
2018-07-19T05:15:24.570Z,18.62
2018-07-19T05:17:51.063Z,18.57
2018-07-19T05:20:17.379Z,18.59
2018-07-19T05:22:43.693Z,18.65
2018-07-19T05:25:10.013Z,18.70
2018-07-19T05:27:36.335Z,18.73
2018-07-19T05:30:04.283Z,18.78
2018-07-19T05:32:30.607Z,18.75
2018-07-19T05:34:56.917Z,18.71
2018-07-19T05:37:23.268Z,18.70
2018-07-19T05:39:49.626Z,18.74
2018-07-19T05:42:15.952Z,18.74
2018-07-19T05:44:42.268Z,18.72
2018-07-19T05:47:08.586Z,18.72
2018-07-19T05:49:34.908Z,18.76
2018-07-19T05:52:01.226Z,18.78
2018-07-19T05:54:27.549Z,18.84
2018-07-19T05:56:53.859Z,18.79
2018-07-19T05:59:20.215Z,18.80
2018-07-19T06:01:46.538Z,18.79
2018-07-19T06:04:12.846Z,18.77
2018-07-19T06:06:39.153Z,18.74
2018-07-19T06:09:05.474Z,18.75
2018-07-19T06:11:31.784Z,18.80
2018-07-19T06:13:58.130Z,18.80
2018-07-19T06:16:24.433Z,18.79
2018-07-19T06:18:50.783Z,18.75
2018-07-19T06:21:17.091Z,18.76
2018-07-19T06:23:43.405Z,18.83
2018-07-19T06:26:09.714Z,18.86
2018-07-19T06:28:36.027Z,18.83
2018-07-19T06:31:02.348Z,18.82
2018-07-19T06:33:28.692Z,18.83
2018-07-19T06:35:54.999Z,18.80
2018-07-19T06:38:21.350Z,18.76
2018-07-19T06:40:47.658Z,18.77
2018-07-19T06:43:13.969Z,18.84
2018-07-19T06:45:40.281Z,18.87
2018-07-19T06:48:06.587Z,18.87
2018-07-19T06:50:32.894Z,19.00
2018-07-19T06:52:59.198Z,19.03
2018-07-19T06:55:25.501Z,19.06
2018-07-19T06:57:51.822Z,19.16
2018-07-19T07:00:18.134Z,19.16
2018-07-19T07:02:44.437Z,19.17
2018-07-19T07:05:10.741Z,19.25
2018-07-19T07:07:37.053Z,19.26
2018-07-19T07:10:03.365Z,19.27
2018-07-19T07:12:29.670Z,19.30
2018-07-19T07:14:56.075Z,19.28
2018-07-19T07:17:22.323Z,19.28
2018-07-19T07:19:48.630Z,19.28
2018-07-19T07:22:14.938Z,19.20
2018-07-19T07:24:41.243Z,19.39
2018-07-19T07:27:07.609Z,19.50
2018-07-19T07:29:33.911Z,19.55
2018-07-19T07:32:00.213Z,19.71
2018-07-19T07:34:26.569Z,19.73
2018-07-19T07:36:52.869Z,19.73
2018-07-19T07:39:19.182Z,19.81
2018-07-19T07:41:45.491Z,19.96
2018-07-19T07:44:11.870Z,20.03
2018-07-19T07:46:38.156Z,20.30
2018-07-19T07:49:04.521Z,20.44
2018-07-19T07:51:30.837Z,20.56
2018-07-19T07:53:57.147Z,20.44
2018-07-19T07:56:23.495Z,20.78
2018-07-19T07:58:49.809Z,20.80
2018-07-19T08:01:16.120Z,20.88
2018-07-19T08:03:42.444Z,20.68
2018-07-19T08:06:08.762Z,20.38
2018-07-19T08:08:35.073Z,20.46
2018-07-19T08:11:01.463Z,20.69
2018-07-19T08:13:27.774Z,20.69
2018-07-19T08:15:54.123Z,20.53
2018-07-19T08:18:20.385Z,20.39
2018-07-19T08:20:46.742Z,20.27
2018-07-19T08:23:13.045Z,20.07
2018-07-19T08:25:39.351Z,20.12
2018-07-19T08:28:05.673Z,19.87
2018-07-19T08:30:31.985Z,19.86
2018-07-19T08:32:58.300Z,19.87
2018-07-19T08:35:24.617Z,19.80
2018-07-19T08:37:50.955Z,19.88
2018-07-19T08:40:17.274Z,19.96
2018-07-19T08:42:43.576Z,20.08
2018-07-19T08:45:09.885Z,19.93
2018-07-19T08:47:36.195Z,19.80
2018-07-19T08:50:02.507Z,19.72
2018-07-19T08:52:28.822Z,19.85
2018-07-19T08:54:55.126Z,19.90
2018-07-19T08:57:21.436Z,19.94
2018-07-19T08:59:47.744Z,20.09
2018-07-19T09:02:14.059Z,20.19
2018-07-19T09:04:40.373Z,20.17
2018-07-19T09:07:06.682Z,20.23
2018-07-19T09:09:32.994Z,20.36
2018-07-19T09:11:59.316Z,20.59
2018-07-19T09:14:25.628Z,20.57
2018-07-19T09:16:51.946Z,20.44
2018-07-19T09:19:18.253Z,20.60
2018-07-19T09:21:44.583Z,20.92
2018-07-19T09:24:10.905Z,21.06
2018-07-19T09:26:37.256Z,21.30
2018-07-19T09:29:03.573Z,21.22
2018-07-19T09:31:29.932Z,21.25
2018-07-19T09:33:56.239Z,21.18
2018-07-19T09:36:22.556Z,21.40
2018-07-19T09:38:48.868Z,21.34
2018-07-19T09:41:15.227Z,21.52
2018-07-19T09:43:41.582Z,21.78
2018-07-19T09:46:07.891Z,21.63
2018-07-19T09:48:34.255Z,21.49
2018-07-19T09:51:00.563Z,21.44
2018-07-19T09:53:26.884Z,21.37
2018-07-19T09:55:53.272Z,21.45
2018-07-19T09:58:19.552Z,21.91
2018-07-19T10:00:45.899Z,21.73
2018-07-19T10:03:12.258Z,22.54
2018-07-19T10:05:38.604Z,22.55
2018-07-19T10:08:04.933Z,22.52
2018-07-19T10:10:31.254Z,22.15
2018-07-19T10:12:57.565Z,21.78
2018-07-19T10:15:23.947Z,21.31
2018-07-19T10:17:50.226Z,21.13
2018-07-19T10:20:16.584Z,20.89
2018-07-19T10:22:42.892Z,20.71
2018-07-19T10:25:09.204Z,20.64
2018-07-19T10:27:35.523Z,20.60
2018-07-19T10:30:01.836Z,20.55
2018-07-19T10:32:28.292Z,20.49
2018-07-19T10:34:54.457Z,20.49
2018-07-19T10:37:20.772Z,20.45
2018-07-19T10:39:47.095Z,20.52
2018-07-19T10:42:13.446Z,20.61
2018-07-19T10:44:39.751Z,20.60
2018-07-19T10:47:06.060Z,20.52
2018-07-19T10:49:32.371Z,20.45
2018-07-19T10:51:58.746Z,20.39
2018-07-19T10:54:25.034Z,20.24
2018-07-19T10:56:51.352Z,20.17
2018-07-19T10:59:17.674Z,20.09
2018-07-19T11:01:43.991Z,20.15
2018-07-19T11:04:10.364Z,20.23
2018-07-19T11:06:36.684Z,20.25
2018-07-19T11:09:03.052Z,20.31
2018-07-19T11:11:29.389Z,20.46
2018-07-19T11:13:55.714Z,20.56
2018-07-19T11:16:22.034Z,20.69
2018-07-19T11:18:48.352Z,20.64
2018-07-19T11:21:14.681Z,20.61
2018-07-19T11:23:41.006Z,20.77
2018-07-19T11:26:07.326Z,20.83
2018-07-19T11:28:33.640Z,20.93
2018-07-19T11:30:59.956Z,20.98
2018-07-19T11:33:26.288Z,20.84
2018-07-19T11:35:52.621Z,20.95
2018-07-19T11:38:18.950Z,21.14
2018-07-19T11:40:45.313Z,21.20
2018-07-19T11:43:11.671Z,21.18
2018-07-19T11:45:37.992Z,21.17
2018-07-19T11:48:04.370Z,21.20
2018-07-19T11:50:30.710Z,21.24
2018-07-19T11:52:57.063Z,21.19
2018-07-19T11:55:23.384Z,21.13
2018-07-19T11:57:49.758Z,20.99
2018-07-19T12:00:16.077Z,21.04
2018-07-19T12:02:42.420Z,20.98
2018-07-19T12:05:08.797Z,21.07
2018-07-19T12:07:35.137Z,21.11
2018-07-19T12:10:01.515Z,21.09
2018-07-19T12:12:27.850Z,21.11
2018-07-19T12:14:54.171Z,21.07
2018-07-19T12:17:20.532Z,21.15
2018-07-19T12:19:46.873Z,21.24
2018-07-19T12:22:13.178Z,21.28
2018-07-19T12:24:39.500Z,21.17
2018-07-19T12:27:05.818Z,21.13
2018-07-19T12:29:32.151Z,21.24
2018-07-19T12:31:58.476Z,21.21
2018-07-19T12:34:24.791Z,21.12
2018-07-19T12:36:51.128Z,21.01
2018-07-19T12:39:17.497Z,20.99
2018-07-19T12:41:43.824Z,20.88
2018-07-19T12:44:10.152Z,20.80
2018-07-19T12:46:36.522Z,20.81
2018-07-19T12:49:02.853Z,20.81
2018-07-19T12:51:29.170Z,20.78
2018-07-19T12:53:55.504Z,20.75
2018-07-19T12:56:21.831Z,20.78
2018-07-19T12:58:48.161Z,20.77
2018-07-19T13:01:14.532Z,20.79
2018-07-19T13:03:40.853Z,20.73
2018-07-19T13:06:07.172Z,20.70
2018-07-19T13:08:33.490Z,20.65
2018-07-19T13:10:59.815Z,20.70
2018-07-19T13:13:26.134Z,20.74
2018-07-19T13:15:52.455Z,20.77
2018-07-19T13:18:18.780Z,20.75
2018-07-19T13:20:45.104Z,20.77
2018-07-19T13:23:11.420Z,20.83
2018-07-19T13:25:37.744Z,20.71
2018-07-19T13:28:04.063Z,20.62
2018-07-19T13:30:30.391Z,20.53
2018-07-19T13:32:56.712Z,20.49
2018-07-19T13:35:23.037Z,20.49
2018-07-19T13:37:49.353Z,20.49
2018-07-19T13:40:15.700Z,20.48
2018-07-19T13:42:42.019Z,20.39
2018-07-19T13:45:08.345Z,20.32
2018-07-19T13:47:34.666Z,20.36
2018-07-19T13:50:00.992Z,20.34
2018-07-19T13:52:27.313Z,20.38
2018-07-19T13:54:53.638Z,20.44
2018-07-19T13:57:20.000Z,20.40
2018-07-19T13:59:46.328Z,20.34
2018-07-19T14:02:12.660Z,20.27
2018-07-19T14:04:38.989Z,20.22
2018-07-19T14:07:05.317Z,20.24
2018-07-19T14:09:31.636Z,20.24
2018-07-19T14:11:57.960Z,20.27
2018-07-19T14:14:24.298Z,20.19
2018-07-19T14:16:50.627Z,20.16
2018-07-19T14:19:16.977Z,20.15
2018-07-19T14:21:43.278Z,20.14
2018-07-19T14:24:09.621Z,20.13
2018-07-19T14:26:35.997Z,20.12
2018-07-19T14:29:02.331Z,20.10
2018-07-19T14:31:28.664Z,20.08
2018-07-19T14:33:54.994Z,20.10
2018-07-19T14:36:21.324Z,20.22
2018-07-19T14:38:47.649Z,20.21
2018-07-19T14:41:14.020Z,20.25
2018-07-19T14:43:40.384Z,20.26
2018-07-19T14:46:06.692Z,20.25
2018-07-19T14:48:33.018Z,20.15
2018-07-19T14:50:59.343Z,20.13
2018-07-19T14:53:25.673Z,20.14
2018-07-19T14:55:51.991Z,20.04
2018-07-19T14:58:18.358Z,20.01
2018-07-19T15:00:44.690Z,20.07
2018-07-19T15:03:11.019Z,20.07
2018-07-19T15:05:37.362Z,20.12
2018-07-19T15:08:03.686Z,20.13
2018-07-19T15:10:30.015Z,20.10
2018-07-19T15:12:56.337Z,20.06
2018-07-19T15:15:22.681Z,20.04
2018-07-19T15:17:48.998Z,20.00
2018-07-19T15:20:15.319Z,19.96
2018-07-19T15:22:41.647Z,19.98
2018-07-19T15:25:07.973Z,19.97
2018-07-19T15:27:34.298Z,19.99
2018-07-19T15:30:00.621Z,19.96
2018-07-19T15:32:26.966Z,19.94
2018-07-19T15:34:53.300Z,19.89
2018-07-19T15:37:19.622Z,19.93
2018-07-19T15:39:45.950Z,19.90
2018-07-19T15:42:12.282Z,19.85
2018-07-19T15:44:38.620Z,19.77
2018-07-19T15:47:04.941Z,19.66
2018-07-19T15:49:31.263Z,19.61
2018-07-19T15:51:57.584Z,19.56
2018-07-19T15:54:23.909Z,19.56
2018-07-19T15:56:50.228Z,19.50
2018-07-19T15:59:16.590Z,19.48
2018-07-19T16:01:42.908Z,19.48
2018-07-19T16:04:09.251Z,19.43
2018-07-19T16:06:35.575Z,19.40
2018-07-19T16:09:01.896Z,19.40
2018-07-19T16:11:28.259Z,19.45
2018-07-19T16:13:54.590Z,19.49
2018-07-19T16:16:20.894Z,19.52
2018-07-19T16:18:47.205Z,19.51
2018-07-19T16:21:13.536Z,19.50
2018-07-19T16:23:39.865Z,19.47
2018-07-19T16:26:06.194Z,19.49
2018-07-19T16:28:32.536Z,19.50
2018-07-19T16:30:58.851Z,19.52
2018-07-19T16:33:25.180Z,19.51
2018-07-19T16:35:51.487Z,19.49
2018-07-19T16:38:17.815Z,19.49
2018-07-19T16:40:44.148Z,19.47
2018-07-19T16:43:10.448Z,19.46
2018-07-19T16:45:36.765Z,19.47
2018-07-19T16:48:03.096Z,19.50
2018-07-19T16:50:29.426Z,19.51
2018-07-19T16:52:55.756Z,19.44
2018-07-19T16:55:22.091Z,19.41
2018-07-19T16:57:48.414Z,19.42
2018-07-19T17:00:14.793Z,19.42
2018-07-19T17:02:41.097Z,19.37
2018-07-19T17:05:07.423Z,19.41
2018-07-19T17:07:33.759Z,19.43
2018-07-19T17:10:00.071Z,19.41
2018-07-19T17:12:26.416Z,19.41
2018-07-19T17:14:52.728Z,19.37
2018-07-19T17:17:19.170Z,19.36
2018-07-19T17:19:45.448Z,19.37
2018-07-19T17:22:11.772Z,19.32
2018-07-19T17:24:38.101Z,19.33
2018-07-19T17:27:04.407Z,19.33
2018-07-19T17:29:30.780Z,19.34
2018-07-19T17:31:57.103Z,19.33
2018-07-19T17:34:23.483Z,19.28
2018-07-19T17:36:49.805Z,19.28
2018-07-19T17:39:16.121Z,19.24
2018-07-19T17:41:42.454Z,19.24
2018-07-19T17:44:08.767Z,19.25
2018-07-19T17:46:35.095Z,19.29
2018-07-19T17:49:01.405Z,19.30
2018-07-19T17:51:27.772Z,19.26
2018-07-19T17:53:54.041Z,19.26
2018-07-19T17:56:20.364Z,19.21
2018-07-19T17:58:46.712Z,19.20
2018-07-19T18:01:13.028Z,19.22
2018-07-19T18:03:39.382Z,19.22
2018-07-19T18:06:05.779Z,19.20
2018-07-19T18:08:32.095Z,19.24
2018-07-19T18:10:58.453Z,19.26
2018-07-19T18:13:24.743Z,19.28
2018-07-19T18:15:51.057Z,19.30
2018-07-19T18:18:17.374Z,19.31
2018-07-19T18:20:43.697Z,19.27
2018-07-19T18:23:10.020Z,19.27
2018-07-19T18:25:36.339Z,19.30
2018-07-19T18:28:02.659Z,19.28
2018-07-19T18:30:28.968Z,19.32
2018-07-19T18:32:55.287Z,19.32
2018-07-19T18:35:21.612Z,19.30
2018-07-19T18:37:47.978Z,19.33
2018-07-19T18:40:14.301Z,19.37
2018-07-19T18:42:40.626Z,19.37
2018-07-19T18:45:06.977Z,19.37
2018-07-19T18:47:33.296Z,19.31
2018-07-19T18:49:59.616Z,19.34
2018-07-19T18:52:25.932Z,19.31
2018-07-19T18:54:52.242Z,19.28
2018-07-19T18:57:18.564Z,19.27
2018-07-19T18:59:44.897Z,19.27
2018-07-19T19:02:11.213Z,19.30
2018-07-19T19:04:37.531Z,19.28
2018-07-19T19:07:03.882Z,19.33
2018-07-19T19:09:30.194Z,19.32
2018-07-19T19:11:56.517Z,19.29
2018-07-19T19:14:22.844Z,19.31
2018-07-19T19:16:49.173Z,19.37
2018-07-19T19:19:15.500Z,19.35
2018-07-19T19:21:41.817Z,19.37
2018-07-19T19:24:08.147Z,19.37
2018-07-19T19:26:34.519Z,19.36
2018-07-19T19:29:00.839Z,19.36
2018-07-19T19:31:27.161Z,19.37
2018-07-19T19:33:53.496Z,19.38
2018-07-19T19:36:19.828Z,19.40
2018-07-19T19:38:46.155Z,19.42
2018-07-19T19:41:12.472Z,19.47
2018-07-19T19:43:38.783Z,19.50
2018-07-19T19:46:05.112Z,19.51
2018-07-19T19:48:31.439Z,19.52
2018-07-19T19:50:57.753Z,19.52
2018-07-19T19:53:24.065Z,19.48
2018-07-19T19:55:50.390Z,19.52
2018-07-19T19:58:16.709Z,19.55
2018-07-19T20:00:43.034Z,19.55
2018-07-19T20:03:09.348Z,19.58
2018-07-19T20:05:35.734Z,19.56
2018-07-19T20:08:01.996Z,19.64
2018-07-19T20:10:28.313Z,19.61
2018-07-19T20:12:54.631Z,19.63
2018-07-19T20:15:20.964Z,19.64
2018-07-19T20:17:47.308Z,19.65
2018-07-19T20:20:13.623Z,19.66
2018-07-19T20:22:39.934Z,19.66
2018-07-19T20:25:06.244Z,19.69
2018-07-19T20:27:32.630Z,19.72
2018-07-19T20:29:58.966Z,19.74
2018-07-19T20:32:25.282Z,19.71
2018-07-19T20:34:51.614Z,19.72
2018-07-19T20:37:17.944Z,19.70
2018-07-19T20:39:44.288Z,19.70
2018-07-19T20:42:10.623Z,19.74
2018-07-19T20:44:36.947Z,19.76
2018-07-19T20:47:03.262Z,19.78
2018-07-19T20:49:29.589Z,19.84
2018-07-19T20:51:55.906Z,19.83
2018-07-19T20:54:22.219Z,19.82
2018-07-19T20:56:48.588Z,19.82
2018-07-19T20:59:14.897Z,19.83
2018-07-19T21:01:41.212Z,19.83
2018-07-19T21:04:07.530Z,19.79
2018-07-19T21:06:33.883Z,19.79
2018-07-19T21:09:00.193Z,19.77
2018-07-19T21:11:26.513Z,19.75
2018-07-19T21:13:52.830Z,19.77
2018-07-19T21:16:19.146Z,19.78
2018-07-19T21:18:45.458Z,19.79
2018-07-19T21:21:11.812Z,19.79
2018-07-19T21:23:38.124Z,19.80
2018-07-19T21:26:04.478Z,19.79
2018-07-19T21:28:30.762Z,19.76
2018-07-19T21:30:57.079Z,19.72
2018-07-19T21:33:23.395Z,19.71
2018-07-19T21:35:49.708Z,19.67
2018-07-19T21:38:16.026Z,19.61
2018-07-19T21:40:42.340Z,19.57
2018-07-19T21:43:08.652Z,19.52
2018-07-19T21:45:34.970Z,19.51
2018-07-19T21:48:01.284Z,19.55
2018-07-19T21:50:27.600Z,19.53
2018-07-19T21:52:53.912Z,19.57
2018-07-19T21:55:20.224Z,19.62
2018-07-19T21:57:46.545Z,19.58
2018-07-19T22:00:12.848Z,19.56
2018-07-19T22:02:39.165Z,19.58
2018-07-19T22:05:05.480Z,19.61
2018-07-19T22:07:31.797Z,19.65
2018-07-19T22:09:58.120Z,19.70
2018-07-19T22:12:24.432Z,19.70
2018-07-19T22:14:50.753Z,19.74
2018-07-19T22:17:17.070Z,19.72
2018-07-19T22:19:43.379Z,19.67
2018-07-19T22:22:09.698Z,19.66
2018-07-19T22:24:36.013Z,19.66
2018-07-19T22:27:02.324Z,19.60
2018-07-19T22:29:28.637Z,19.62
2018-07-19T22:31:54.956Z,19.63
2018-07-19T22:34:21.270Z,19.69
2018-07-19T22:36:47.585Z,19.71
2018-07-19T22:39:13.900Z,19.72
2018-07-19T22:41:40.208Z,19.69
2018-07-19T22:44:06.521Z,19.64
2018-07-19T22:46:32.832Z,19.62
2018-07-19T22:48:59.147Z,19.57
2018-07-19T22:51:25.462Z,19.52
2018-07-19T22:53:51.787Z,19.51
2018-07-19T22:56:18.096Z,19.48
2018-07-19T22:58:44.409Z,19.49
2018-07-19T23:01:10.716Z,19.45
2018-07-19T23:03:37.027Z,19.44
2018-07-19T23:06:03.354Z,19.42
2018-07-19T23:08:29.665Z,19.45
2018-07-19T23:10:55.980Z,19.43
2018-07-19T23:13:22.288Z,19.47
2018-07-19T23:15:48.605Z,19.48
2018-07-19T23:18:14.964Z,19.46
2018-07-19T23:20:41.277Z,19.43
2018-07-19T23:23:07.593Z,19.49
2018-07-19T23:25:33.907Z,19.51
2018-07-19T23:28:00.213Z,19.50
2018-07-19T23:30:26.529Z,19.50
2018-07-19T23:32:52.849Z,19.46
2018-07-19T23:35:19.152Z,19.44
2018-07-19T23:37:45.469Z,19.43
2018-07-19T23:40:11.780Z,19.41
2018-07-19T23:42:38.133Z,19.38
2018-07-19T23:45:04.436Z,19.36
2018-07-19T23:47:30.754Z,19.33
2018-07-19T23:49:57.069Z,19.33
2018-07-19T23:52:23.421Z,19.33
2018-07-19T23:54:49.732Z,19.33
2018-07-19T23:57:16.052Z,19.38
2018-07-19T23:59:42.410Z,19.36
